Terminal Aerodrome Forecast
Issued by NWS Sterling, VA

Current Version | Previous Version | Graphics & Text | Print | Product List | Glossary On
Versions: 1 2 3 4 5 6 7 8 9 10 11 12 13 14
000
FTUS41 KLWX 271700
TAFMRB
TAF
KMRB 271731Z 2718/2818 VRB03KT P6SM BKN040
     FM272000 21005KT P6SM VCTS BKN050CB
     FM280400 32005KT P6SM BKN250
     FM280900 32005KT 4SM BR FEW025 SCT100
     FM281200 33007KT P6SM FEW025 FEW100
     FM281600 32009KT P6SM FEW100=

USA.gov is the U.S. government's official web portal to all federal, state and local government web resources and services.